Ardmore Seamaster — V7UU8 — position and weather

sailwx.info

Track history (hours):
 
Tides and Currents Weather Stations Pressure Air Temp Water Temp Dewpoint Dewpoint Depression Visibility Wind Speed Wind Dir Waves Ship Positions

Ardmore Seamaster

Last reported at 2018-Jun-23 02:21 UTC. Time now 2018-Jun-23 06:31 UTC.
Position N 45°35' W 001°34'.

Length 180 m; draft 9.4 m.

Type: Tanker. MMSI: 538004102.

Date/timePositionNaut miles runAvg speedWind from/ knotsBaromVisibWave heightAir tempDewpointWater temp
2018-Jun-23 02:21N 45°35' W 001°34'514.2
2018-Jun-23 02:00N 45°36' W 001°27'713.8
2018-Jun-23 01:30N 45°38' W 001°18'611.7
2018-Jun-23 01:01N 45°39' W 001°10'4 7.8
2018-Jun-23 00:30N 45°37' W 001°05'2 4.8
2018-Jun-23 00:00N 45°35' W 001°03'2 3.8
2018-Jun-22 23:30N 45°33' W 001°02'2 4.1
2018-Jun-22 23:00N 45°32' W 000°60'2 4.7
2018-Jun-22 22:30N 45°30' W 000°58'4 8.6
2018-Jun-22 22:00N 45°27' W 000°54'3 6.2
2018-Jun-22 21:30N 45°24' W 000°51'4 7.1
2018-Jun-22 21:01N 45°21' W 000°48'5 9.2
2018-Jun-22 20:30N 45°17' W 000°46'4 0.1
2018-Jun-21 10:59N 45°14' W 000°45'0 0.3
2018-Jun-21 10:29N 45°14' W 000°45'3 5.8
2018-Jun-21 10:00N 45°16' W 000°45'712.8
2018-Jun-21 09:30N 45°22' W 000°49'612.1
2018-Jun-21 09:00N 45°27' W 000°54'714.9
2018-Jun-21 08:30N 45°33' W 001°01'714.5
2018-Jun-21 08:00N 45°38' W 001°07'713.1
2018-Jun-21 07:30N 45°38' W 001°17'611.8
2018-Jun-21 07:00N 45°36' W 001°25'3 6.5
2018-Jun-21 06:30N 45°37' W 001°29'1 2.6
2018-Jun-21 06:00N 45°37' W 001°31'4 7.3
2018-Jun-21 05:30N 45°40' W 001°33'612.6
2018-Jun-21 05:00N 45°46' W 001°37'612.8
2018-Jun-21 04:31N 45°52' W 001°41'713.2
2018-Jun-21 04:00N 45°58' W 001°44'612.2
2018-Jun-21 03:30N 46°04' W 001°46'611.5
2018-Jun-21 03:01N 46°08' W 001°39'714.0
2018-Jun-21 02:30N 46°07' W 001°29'713.5
2018-Jun-21 02:00N 46°06' W 001°20'4 8.1
2018-Jun-21 01:30N 46°08' W 001°15'1 2.1
2018-Jun-21 01:00N 46°09' W 001°14'0 0.0
2018-Jun-21 00:31N 46°09' W 001°14'0 0.0
2018-Jun-21 00:00N 46°09' W 001°14'0 0.0
2018-Jun-20 23:31N 46°09' W 001°14'0 0.0
2018-Jun-20 23:00N 46°09' W 001°14'0 0.0
2018-Jun-20 22:31N 46°09' W 001°14'0 0.0
2018-Jun-20 22:00N 46°09' W 001°14'0 0.0
2018-Jun-20 21:30N 46°09' W 001°14'0 0.0
2018-Jun-20 21:01N 46°09' W 001°14'0 0.0
2018-Jun-20 20:30N 46°09' W 001°14'0 0.0
2018-Jun-20 20:00N 46°09' W 001°14'0 0.0
2018-Jun-20 19:30N 46°09' W 001°14'0 0.0
2018-Jun-20 19:00N 46°09' W 001°14'0 0.0
2018-Jun-20 18:30N 46°09' W 001°14'0 0.0
2018-Jun-20 18:00N 46°09' W 001°14'0 0.0
2018-Jun-20 17:30N 46°09' W 001°14'0 0.0
2018-Jun-20 17:00N 46°09' W 001°14'0 0.0
2018-Jun-20 16:30N 46°09' W 001°14'0 0.0
2018-Jun-20 16:00N 46°09' W 001°14'0 0.0
2018-Jun-20 15:30N 46°09' W 001°14'0 0.0
2018-Jun-20 15:00N 46°09' W 001°14'0 0.0
2018-Jun-20 14:30N 46°09' W 001°14'0 0.0
2018-Jun-20 14:00N 46°09' W 001°14'0 0.0
2018-Jun-20 13:30N 46°09' W 001°14'0 0.0
2018-Jun-20 13:00N 46°09' W 001°14'0 0.0
2018-Jun-20 12:30N 46°09' W 001°14'0 0.0
2018-Jun-20 12:00N 46°09' W 001°14'0 0.0
2018-Jun-20 11:30N 46°09' W 001°14'0 0.0
2018-Jun-20 11:00N 46°09' W 001°14'0 0.0
2018-Jun-20 10:30N 46°09' W 001°14'0 0.0
2018-Jun-20 10:01N 46°09' W 001°14'0 0.6
2018-Jun-20 09:31N 46°09' W 001°15'2 4.1
2018-Jun-20 09:01N 46°07' W 001°15'3 6.8
2018-Jun-20 08:30N 46°04' W 001°17'0 0.3
2018-Jun-20 08:01N 46°04' W 001°17'0 0.0
2018-Jun-20 07:29N 46°04' W 001°17'0 0.0
2018-Jun-20 06:59N 46°04' W 001°17'0 0.0
2018-Jun-20 06:29N 46°04' W 001°17'0 0.0
2018-Jun-20 05:59N 46°04' W 001°17'0 0.0
2018-Jun-20 05:29N 46°04' W 001°17'0 0.0
2018-Jun-20 04:59N 46°04' W 001°17'0 0.0
2018-Jun-20 04:29N 46°04' W 001°17'0 0.0
2018-Jun-20 03:59N 46°04' W 001°17'0 0.1
2018-Jun-20 03:29N 46°04' W 001°17'0 0.1
2018-Jun-20 02:59N 46°04' W 001°17'0 0.3
2018-Jun-20 02:29N 46°04' W 001°17'0 0.1
2018-Jun-20 01:58N 46°04' W 001°17'0 0.0
2018-Jun-20 01:29N 46°04' W 001°17'0 0.0
2018-Jun-20 00:59N 46°04' W 001°17'0 0.1
2018-Jun-20 00:29N 46°04' W 001°17'0 0.0
2018-Jun-19 23:59N 46°04' W 001°17'0 0.0
2018-Jun-19 23:29N 46°04' W 001°17'0 0.1
2018-Jun-19 22:59N 46°04' W 001°17'0 0.1
2018-Jun-19 22:29N 46°04' W 001°17'0 0.1
2018-Jun-19 21:59N 46°04' W 001°17'0 0.1
2018-Jun-19 21:29N 46°04' W 001°17'0 0.0
2018-Jun-19 20:58N 46°04' W 001°17'0 0.0
2018-Jun-19 20:29N 46°04' W 001°17'0 0.0
2018-Jun-19 19:58N 46°04' W 001°17'0 0.0
2018-Jun-19 19:28N 46°04' W 001°17'0 0.0
2018-Jun-19 18:59N 46°04' W 001°17'0 0.0
2018-Jun-19 18:28N 46°04' W 001°17'0 0.0
2018-Jun-19 17:58N 46°04' W 001°17'0 0.0
2018-Jun-19 17:29N 46°04' W 001°17'0 0.0
2018-Jun-19 16:59N 46°04' W 001°17'0 0.0
2018-Jun-19 16:29N 46°04' W 001°17'0 0.0
2018-Jun-19 15:58N 46°04' W 001°17'0 0.0
2018-Jun-19 15:28N 46°04' W 001°17'0 0.1
2018-Jun-19 14:58N 46°04' W 001°17'0 0.1
2018-Jun-19 14:28N 46°04' W 001°17'0 0.1
2018-Jun-19 13:58N 46°04' W 001°17'0 0.3
2018-Jun-19 13:28N 46°04' W 001°17'0 0.1
2018-Jun-19 12:58N 46°04' W 001°17'0 0.0
2018-Jun-19 12:29N 46°04' W 001°17'0 0.0
2018-Jun-19 11:59N 46°04' W 001°17'0 0.0
2018-Jun-19 11:28N 46°04' W 001°17'0 0.0
2018-Jun-19 10:58N 46°04' W 001°17'0 0.1
2018-Jun-19 10:28N 46°04' W 001°17'0 0.2
2018-Jun-19 09:58N 46°04' W 001°17'0 0.2
2018-Jun-19 09:29N 46°04' W 001°17'0 0.1
2018-Jun-19 08:58N 46°04' W 001°17'0 0.0
2018-Jun-19 08:28N 46°04' W 001°17'0 0.0
2018-Jun-19 07:58N 46°04' W 001°17'0 0.0
2018-Jun-19 07:28N 46°04' W 001°17'0 0.0
2018-Jun-19 06:58N 46°04' W 001°17'0 0.0
2018-Jun-19 06:28N 46°04' W 001°17'0 0.0
2018-Jun-19 05:58N 46°04' W 001°17'0 0.0
2018-Jun-19 05:28N 46°04' W 001°17'0 0.0
2018-Jun-19 04:58N 46°04' W 001°17'0 0.0
2018-Jun-19 04:28N 46°04' W 001°17'0 0.0
2018-Jun-19 03:58N 46°04' W 001°17'0 0.0
2018-Jun-19 03:28N 46°04' W 001°17'0 0.0
2018-Jun-19 02:58N 46°04' W 001°17'0 0.0
2018-Jun-19 02:28N 46°04' W 001°17'0 0.1
2018-Jun-19 01:58N 46°04' W 001°17'0 0.3
2018-Jun-19 01:28N 46°04' W 001°17'0 0.1
2018-Jun-19 00:58N 46°04' W 001°17'0 0.1
2018-Jun-19 00:28N 46°04' W 001°17'0 0.0
2018-Jun-18 23:58N 46°04' W 001°17'0 0.0
2018-Jun-18 23:28N 46°04' W 001°17'0 0.0
2018-Jun-18 22:58N 46°04' W 001°17'0 0.1
2018-Jun-18 22:28N 46°04' W 001°17'0 0.2
2018-Jun-18 21:58N 46°04' W 001°17'0 0.1
2018-Jun-18 21:28N 46°04' W 001°17'0 0.1
2018-Jun-18 20:58N 46°04' W 001°17'0 0.0
2018-Jun-18 20:28N 46°04' W 001°17'0 0.0
2018-Jun-18 19:58N 46°04' W 001°17'0 0.0
2018-Jun-18 19:28N 46°04' W 001°17'0 0.0
2018-Jun-18 18:58N 46°04' W 001°17'0 1.0
2018-Jun-18 18:31N 46°04' W 001°17'2 4.8
2018-Jun-18 18:00N 46°05' W 001°20'4 8.4
2018-Jun-18 17:31N 46°07' W 001°26'612.3
2018-Jun-18 17:01N 46°07' W 001°35'612.1
2018-Jun-18 16:30N 46°08' W 001°44'613.1
2018-Jun-18 16:01N 46°05' W 001°52'1213.1
2018-Jun-18 15:06N 46°00' W 002°08'113.1
2018-Jun-18 15:01N 45°60' W 002°09'713.1
2018-Jun-18 14:29N 45°57' W 002°18'713.0
2018-Jun-18 13:56N 45°56' W 002°29'713.2
2018-Jun-18 13:22N 45°55' W 002°39'612.9
2018-Jun-18 12:56N 45°54' W 002°47'512.3
2018-Jun-18 12:30N 45°53' W 002°55'612.0
2018-Jun-18 12:01N 45°52' W 003°03'612.6
2018-Jun-18 11:30N 45°50' W 003°12'612.4
2018-Jun-18 11:00N 45°49' W 003°21'611.7
2018-Jun-18 10:30N 45°48' W 003°29'812.3
2018-Jun-18 09:53N 45°47' W 003°40'612.7
2018-Jun-18 09:22N 45°46' W 003°49'3412.8
2018-Jun-18 06:42N 45°40' W 004°37'1912.9
2018-Jun-18 05:13N 45°36' W 005°04'1012.7
2018-Jun-18 04:27N 45°35' W 005°18'  
Track history (hours):
 
Tides and Currents Weather Stations Pressure Air Temp Water Temp Dewpoint Dewpoint Depression Visibility Wind Speed Wind Dir Waves Ship Positions

Ardmore Seamaster

Last reported at 2018-Jun-23 02:21 UTC. Time now 2018-Jun-23 06:31 UTC.
Position N 45°35' W 001°34'.

Length 180 m; draft 9.4 m.

Type: Tanker. MMSI: 538004102.

Date/timePositionNaut miles runAvg speedWind from/ knotsBaromVisibWave heightAir tempDewpointWater temp
2018-Jun-23 02:21N 45°35' W 001°34'514.2
2018-Jun-23 02:00N 45°36' W 001°27'713.8
2018-Jun-23 01:30N 45°38' W 001°18'611.7
2018-Jun-23 01:01N 45°39' W 001°10'4 7.8
2018-Jun-23 00:30N 45°37' W 001°05'2 4.8
2018-Jun-23 00:00N 45°35' W 001°03'2 3.8
2018-Jun-22 23:30N 45°33' W 001°02'2 4.1
2018-Jun-22 23:00N 45°32' W 000°60'2 4.7
2018-Jun-22 22:30N 45°30' W 000°58'4 8.6
2018-Jun-22 22:00N 45°27' W 000°54'3 6.2
2018-Jun-22 21:30N 45°24' W 000°51'4 7.1
2018-Jun-22 21:01N 45°21' W 000°48'5 9.2
2018-Jun-22 20:30N 45°17' W 000°46'4 0.1
2018-Jun-21 10:59N 45°14' W 000°45'0 0.3
2018-Jun-21 10:29N 45°14' W 000°45'3 5.8
2018-Jun-21 10:00N 45°16' W 000°45'712.8
2018-Jun-21 09:30N 45°22' W 000°49'612.1
2018-Jun-21 09:00N 45°27' W 000°54'714.9
2018-Jun-21 08:30N 45°33' W 001°01'714.5
2018-Jun-21 08:00N 45°38' W 001°07'713.1
2018-Jun-21 07:30N 45°38' W 001°17'611.8
2018-Jun-21 07:00N 45°36' W 001°25'3 6.5
2018-Jun-21 06:30N 45°37' W 001°29'1 2.6
2018-Jun-21 06:00N 45°37' W 001°31'4 7.3
2018-Jun-21 05:30N 45°40' W 001°33'612.6
2018-Jun-21 05:00N 45°46' W 001°37'612.8
2018-Jun-21 04:31N 45°52' W 001°41'713.2
2018-Jun-21 04:00N 45°58' W 001°44'612.2
2018-Jun-21 03:30N 46°04' W 001°46'611.5
2018-Jun-21 03:01N 46°08' W 001°39'714.0
2018-Jun-21 02:30N 46°07' W 001°29'713.5
2018-Jun-21 02:00N 46°06' W 001°20'4 8.1
2018-Jun-21 01:30N 46°08' W 001°15'1 2.1
2018-Jun-21 01:00N 46°09' W 001°14'0 0.0
2018-Jun-21 00:31N 46°09' W 001°14'0 0.0
2018-Jun-21 00:00N 46°09' W 001°14'0 0.0
2018-Jun-20 23:31N 46°09' W 001°14'0 0.0
2018-Jun-20 23:00N 46°09' W 001°14'0 0.0
2018-Jun-20 22:31N 46°09' W 001°14'0 0.0
2018-Jun-20 22:00N 46°09' W 001°14'0 0.0
2018-Jun-20 21:30N 46°09' W 001°14'0 0.0
2018-Jun-20 21:01N 46°09' W 001°14'0 0.0
2018-Jun-20 20:30N 46°09' W 001°14'0 0.0
2018-Jun-20 20:00N 46°09' W 001°14'0 0.0
2018-Jun-20 19:30N 46°09' W 001°14'0 0.0
2018-Jun-20 19:00N 46°09' W 001°14'0 0.0
2018-Jun-20 18:30N 46°09' W 001°14'0 0.0
2018-Jun-20 18:00N 46°09' W 001°14'0 0.0
2018-Jun-20 17:30N 46°09' W 001°14'0 0.0
2018-Jun-20 17:00N 46°09' W 001°14'0 0.0
2018-Jun-20 16:30N 46°09' W 001°14'0 0.0
2018-Jun-20 16:00N 46°09' W 001°14'0 0.0
2018-Jun-20 15:30N 46°09' W 001°14'0 0.0
2018-Jun-20 15:00N 46°09' W 001°14'0 0.0
2018-Jun-20 14:30N 46°09' W 001°14'0 0.0
2018-Jun-20 14:00N 46°09' W 001°14'0 0.0
2018-Jun-20 13:30N 46°09' W 001°14'0 0.0
2018-Jun-20 13:00N 46°09' W 001°14'0 0.0
2018-Jun-20 12:30N 46°09' W 001°14'0 0.0
2018-Jun-20 12:00N 46°09' W 001°14'0 0.0
2018-Jun-20 11:30N 46°09' W 001°14'0 0.0
2018-Jun-20 11:00N 46°09' W 001°14'0 0.0
2018-Jun-20 10:30N 46°09' W 001°14'0 0.0
2018-Jun-20 10:01N 46°09' W 001°14'0 0.6
2018-Jun-20 09:31N 46°09' W 001°15'2 4.1
2018-Jun-20 09:01N 46°07' W 001°15'3 6.8
2018-Jun-20 08:30N 46°04' W 001°17'0 0.3
2018-Jun-20 08:01N 46°04' W 001°17'0 0.0
2018-Jun-20 07:29N 46°04' W 001°17'0 0.0
2018-Jun-20 06:59N 46°04' W 001°17'0 0.0
2018-Jun-20 06:29N 46°04' W 001°17'0 0.0
2018-Jun-20 05:59N 46°04' W 001°17'0 0.0
2018-Jun-20 05:29N 46°04' W 001°17'0 0.0
2018-Jun-20 04:59N 46°04' W 001°17'0 0.0
2018-Jun-20 04:29N 46°04' W 001°17'0 0.0
2018-Jun-20 03:59N 46°04' W 001°17'0 0.1
2018-Jun-20 03:29N 46°04' W 001°17'0 0.1
2018-Jun-20 02:59N 46°04' W 001°17'0 0.3
2018-Jun-20 02:29N 46°04' W 001°17'0 0.1
2018-Jun-20 01:58N 46°04' W 001°17'0 0.0
2018-Jun-20 01:29N 46°04' W 001°17'0 0.0
2018-Jun-20 00:59N 46°04' W 001°17'0 0.1
2018-Jun-20 00:29N 46°04' W 001°17'0 0.0
2018-Jun-19 23:59N 46°04' W 001°17'0 0.0
2018-Jun-19 23:29N 46°04' W 001°17'0 0.1
2018-Jun-19 22:59N 46°04' W 001°17'0 0.1
2018-Jun-19 22:29N 46°04' W 001°17'0 0.1
2018-Jun-19 21:59N 46°04' W 001°17'0 0.1
2018-Jun-19 21:29N 46°04' W 001°17'0 0.0
2018-Jun-19 20:58N 46°04' W 001°17'0 0.0
2018-Jun-19 20:29N 46°04' W 001°17'0 0.0
2018-Jun-19 19:58N 46°04' W 001°17'0 0.0
2018-Jun-19 19:28N 46°04' W 001°17'0 0.0
2018-Jun-19 18:59N 46°04' W 001°17'0 0.0
2018-Jun-19 18:28N 46°04' W 001°17'0 0.0
2018-Jun-19 17:58N 46°04' W 001°17'0 0.0
2018-Jun-19 17:29N 46°04' W 001°17'0 0.0
2018-Jun-19 16:59N 46°04' W 001°17'0 0.0
2018-Jun-19 16:29N 46°04' W 001°17'0 0.0
2018-Jun-19 15:58N 46°04' W 001°17'0 0.0
2018-Jun-19 15:28N 46°04' W 001°17'0 0.1
2018-Jun-19 14:58N 46°04' W 001°17'0 0.1
2018-Jun-19 14:28N 46°04' W 001°17'0 0.1
2018-Jun-19 13:58N 46°04' W 001°17'0 0.3
2018-Jun-19 13:28N 46°04' W 001°17'0 0.1
2018-Jun-19 12:58N 46°04' W 001°17'0 0.0
2018-Jun-19 12:29N 46°04' W 001°17'0 0.0
2018-Jun-19 11:59N 46°04' W 001°17'0 0.0
2018-Jun-19 11:28N 46°04' W 001°17'0 0.0
2018-Jun-19 10:58N 46°04' W 001°17'0 0.1
2018-Jun-19 10:28N 46°04' W 001°17'0 0.2
2018-Jun-19 09:58N 46°04' W 001°17'0 0.2
2018-Jun-19 09:29N 46°04' W 001°17'0 0.1
2018-Jun-19 08:58N 46°04' W 001°17'0 0.0
2018-Jun-19 08:28N 46°04' W 001°17'0 0.0
2018-Jun-19 07:58N 46°04' W 001°17'0 0.0
2018-Jun-19 07:28N 46°04' W 001°17'0 0.0
2018-Jun-19 06:58N 46°04' W 001°17'0 0.0
2018-Jun-19 06:28N 46°04' W 001°17'0 0.0
2018-Jun-19 05:58N 46°04' W 001°17'0 0.0
2018-Jun-19 05:28N 46°04' W 001°17'0 0.0
2018-Jun-19 04:58N 46°04' W 001°17'0 0.0
2018-Jun-19 04:28N 46°04' W 001°17'0 0.0
2018-Jun-19 03:58N 46°04' W 001°17'0 0.0
2018-Jun-19 03:28N 46°04' W 001°17'0 0.0
2018-Jun-19 02:58N 46°04' W 001°17'0 0.0
2018-Jun-19 02:28N 46°04' W 001°17'0 0.1
2018-Jun-19 01:58N 46°04' W 001°17'0 0.3
2018-Jun-19 01:28N 46°04' W 001°17'0 0.1
2018-Jun-19 00:58N 46°04' W 001°17'0 0.1
2018-Jun-19 00:28N 46°04' W 001°17'0 0.0
2018-Jun-18 23:58N 46°04' W 001°17'0 0.0
2018-Jun-18 23:28N 46°04' W 001°17'0 0.0
2018-Jun-18 22:58N 46°04' W 001°17'0 0.1
2018-Jun-18 22:28N 46°04' W 001°17'0 0.2
2018-Jun-18 21:58N 46°04' W 001°17'0 0.1
2018-Jun-18 21:28N 46°04' W 001°17'0 0.1
2018-Jun-18 20:58N 46°04' W 001°17'0 0.0
2018-Jun-18 20:28N 46°04' W 001°17'0 0.0
2018-Jun-18 19:58N 46°04' W 001°17'0 0.0
2018-Jun-18 19:28N 46°04' W 001°17'0 0.0
2018-Jun-18 18:58N 46°04' W 001°17'0 1.0
2018-Jun-18 18:31N 46°04' W 001°17'2 4.8
2018-Jun-18 18:00N 46°05' W 001°20'4 8.4
2018-Jun-18 17:31N 46°07' W 001°26'612.3
2018-Jun-18 17:01N 46°07' W 001°35'612.1
2018-Jun-18 16:30N 46°08' W 001°44'613.1
2018-Jun-18 16:01N 46°05' W 001°52'1213.1
2018-Jun-18 15:06N 46°00' W 002°08'113.1
2018-Jun-18 15:01N 45°60' W 002°09'713.1
2018-Jun-18 14:29N 45°57' W 002°18'713.0
2018-Jun-18 13:56N 45°56' W 002°29'713.2
2018-Jun-18 13:22N 45°55' W 002°39'612.9
2018-Jun-18 12:56N 45°54' W 002°47'512.3
2018-Jun-18 12:30N 45°53' W 002°55'612.0
2018-Jun-18 12:01N 45°52' W 003°03'612.6
2018-Jun-18 11:30N 45°50' W 003°12'612.4
2018-Jun-18 11:00N 45°49' W 003°21'611.7
2018-Jun-18 10:30N 45°48' W 003°29'812.3
2018-Jun-18 09:53N 45°47' W 003°40'612.7
2018-Jun-18 09:22N 45°46' W 003°49'3412.8
2018-Jun-18 06:42N 45°40' W 004°37'1912.9
2018-Jun-18 05:13N 45°36' W 005°04'1012.7
2018-Jun-18 04:27N 45°35' W 005°18'  

Dump ship's entire track history